Weather at Queen Beatrix International Airport

Public forecast

Using degrees Celsius for public forecast. Weather courtesy of forecast.io.

Current aviation weather report (METAR) for Queen Beatrix International Airport

Report is more than 2 hours old.

2024/02/29 06:00 (retrieved 3 hours ago)

TNCA 290600Z 08013KT 9999 FEW018 27/22 Q1014 NOSIG

Aviation forecast (TAF) for Queen Beatrix International Airport

2024/02/29 06:51 (retrieved 2 hours ago)

TAF TNCA 290600Z 2906/0106 09015KT 9999 FEW018 PROB30 TEMPO 2906/2924 7000 -SHRA SCT015 BKN020